sensor_id;sensor_type;location;lat;lon;timestamp;temperature;humidity
42037;DHT22;30340;52.004;5.908;2023-04-15T00:00:35;10.90;59.00
42037;DHT22;30340;52.004;5.908;2023-04-15T00:03:01;10.90;59.10
42037;DHT22;30340;52.004;5.908;2023-04-15T00:05:29;10.90;59.50
42037;DHT22;30340;52.004;5.908;2023-04-15T00:07:54;10.90;59.40
42037;DHT22;30340;52.004;5.908;2023-04-15T00:10:20;10.90;59.40
42037;DHT22;30340;52.004;5.908;2023-04-15T00:12:45;10.90;59.70
42037;DHT22;30340;52.004;5.908;2023-04-15T00:15:11;10.80;60.00
42037;DHT22;30340;52.004;5.908;2023-04-15T00:17:37;10.80;59.70
42037;DHT22;30340;52.004;5.908;2023-04-15T00:20:04;10.80;59.80
42037;DHT22;30340;52.004;5.908;2023-04-15T00:22:31;10.80;60.40
42037;DHT22;30340;52.004;5.908;2023-04-15T00:24:56;10.70;60.60
42037;DHT22;30340;52.004;5.908;2023-04-15T00:27:22;10.70;61.00
42037;DHT22;30340;52.004;5.908;2023-04-15T00:29:55;10.70;60.90
42037;DHT22;30340;52.004;5.908;2023-04-15T00:32:24;10.60;61.10
42037;DHT22;30340;52.004;5.908;2023-04-15T00:34:49;10.60;61.30
42037;DHT22;30340;52.004;5.908;2023-04-15T00:37:15;10.60;61.80
42037;DHT22;30340;52.004;5.908;2023-04-15T00:39:40;10.60;61.80
42037;DHT22;30340;52.004;5.908;2023-04-15T00:42:06;10.50;61.90
42037;DHT22;30340;52.004;5.908;2023-04-15T00:44:32;10.50;61.80
42037;DHT22;30340;52.004;5.908;2023-04-15T00:46:59;10.50;61.90
42037;DHT22;30340;52.004;5.908;2023-04-15T00:49:26;10.50;62.00
42037;DHT22;30340;52.004;5.908;2023-04-15T00:51:53;10.40;62.30
42037;DHT22;30340;52.004;5.908;2023-04-15T00:54:18;10.40;62.70
42037;DHT22;30340;52.004;5.908;2023-04-15T00:56:44;10.40;63.10
42037;DHT22;30340;52.004;5.908;2023-04-15T00:59:09;10.40;63.10
42037;DHT22;30340;52.004;5.908;2023-04-15T01:01:36;10.30;63.40
42037;DHT22;30340;52.004;5.908;2023-04-15T01:04:03;10.30;63.30
42037;DHT22;30340;52.004;5.908;2023-04-15T01:06:30;10.30;63.50
42037;DHT22;30340;52.004;5.908;2023-04-15T01:08:57;10.30;63.90
42037;DHT22;30340;52.004;5.908;2023-04-15T01:11:23;10.30;64.30
42037;DHT22;30340;52.004;5.908;2023-04-15T01:13:50;10.20;64.40
42037;DHT22;30340;52.004;5.908;2023-04-15T01:16:18;10.20;64.70
42037;DHT22;30340;52.004;5.908;2023-04-15T01:18:44;10.30;64.50
42037;DHT22;30340;52.004;5.908;2023-04-15T01:21:10;10.30;64.70
42037;DHT22;30340;52.004;5.908;2023-04-15T01:23:36;10.20;64.70
42037;DHT22;30340;52.004;5.908;2023-04-15T01:26:03;10.20;65.10
42037;DHT22;30340;52.004;5.908;2023-04-15T01:28:30;10.20;65.00
42037;DHT22;30340;52.004;5.908;2023-04-15T01:31:12;10.20;65.20
42037;DHT22;30340;52.004;5.908;2023-04-15T01:33:39;10.20;65.30
42037;DHT22;30340;52.004;5.908;2023-04-15T01:36:06;10.20;65.70
42037;DHT22;30340;52.004;5.908;2023-04-15T01:38:33;10.10;65.90
42037;DHT22;30340;52.004;5.908;2023-04-15T01:40:58;10.10;65.80
42037;DHT22;30340;52.004;5.908;2023-04-15T01:43:25;10.10;66.10
42037;DHT22;30340;52.004;5.908;2023-04-15T01:45:51;10.10;66.20
42037;DHT22;30340;52.004;5.908;2023-04-15T01:48:16;10.10;66.20
42037;DHT22;30340;52.004;5.908;2023-04-15T01:50:42;10.10;66.60
42037;DHT22;30340;52.004;5.908;2023-04-15T01:53:08;10.10;66.40
42037;DHT22;30340;52.004;5.908;2023-04-15T01:55:34;10.00;66.80
42037;DHT22;30340;52.004;5.908;2023-04-15T01:57:59;10.10;66.80
42037;DHT22;30340;52.004;5.908;2023-04-15T02:00:25;10.10;66.70
42037;DHT22;30340;52.004;5.908;2023-04-15T02:02:51;10.00;66.70
42037;DHT22;30340;52.004;5.908;2023-04-15T02:05:17;10.00;66.80
42037;DHT22;30340;52.004;5.908;2023-04-15T02:07:43;10.00;66.90
42037;DHT22;30340;52.004;5.908;2023-04-15T02:10:09;10.00;66.80
42037;DHT22;30340;52.004;5.908;2023-04-15T02:12:35;10.00;66.70
42037;DHT22;30340;52.004;5.908;2023-04-15T02:15:00;10.00;66.80
42037;DHT22;30340;52.004;5.908;2023-04-15T02:17:26;10.10;66.50
42037;DHT22;30340;52.004;5.908;2023-04-15T02:19:51;10.10;66.20
42037;DHT22;30340;52.004;5.908;2023-04-15T02:22:17;10.10;66.60
42037;DHT22;30340;52.004;5.908;2023-04-15T02:24:43;10.10;65.70
42037;DHT22;30340;52.004;5.908;2023-04-15T02:27:10;10.10;65.60
42037;DHT22;30340;52.004;5.908;2023-04-15T02:29:39;10.10;65.60
42037;DHT22;30340;52.004;5.908;2023-04-15T02:32:04;10.10;65.50
42037;DHT22;30340;52.004;5.908;2023-04-15T02:34:30;10.10;65.50
42037;DHT22;30340;52.004;5.908;2023-04-15T02:36:57;10.00;65.40
42037;DHT22;30340;52.004;5.908;2023-04-15T02:39:23;10.00;65.60
42037;DHT22;30340;52.004;5.908;2023-04-15T02:41:49;9.90;65.60
42037;DHT22;30340;52.004;5.908;2023-04-15T02:44:17;9.90;65.70
42037;DHT22;30340;52.004;5.908;2023-04-15T02:46:45;9.80;65.80
42037;DHT22;30340;52.004;5.908;2023-04-15T02:49:17;9.60;66.10
42037;DHT22;30340;52.004;5.908;2023-04-15T02:51:42;9.60;66.40
42037;DHT22;30340;52.004;5.908;2023-04-15T02:54:08;9.50;66.40
42037;DHT22;30340;52.004;5.908;2023-04-15T02:56:34;9.50;66.70
42037;DHT22;30340;52.004;5.908;2023-04-15T02:58:59;9.40;66.90
42037;DHT22;30340;52.004;5.908;2023-04-15T03:01:25;9.30;66.90
42037;DHT22;30340;52.004;5.908;2023-04-15T03:03:51;9.30;67.50
42037;DHT22;30340;52.004;5.908;2023-04-15T03:06:17;9.20;67.50
42037;DHT22;30340;52.004;5.908;2023-04-15T03:08:42;9.20;67.60
42037;DHT22;30340;52.004;5.908;2023-04-15T03:11:08;9.20;67.90
42037;DHT22;30340;52.004;5.908;2023-04-15T03:13:33;9.00;68.30
42037;DHT22;30340;52.004;5.908;2023-04-15T03:15:59;9.00;68.60
42037;DHT22;30340;52.004;5.908;2023-04-15T03:18:24;9.00;68.60
42037;DHT22;30340;52.004;5.908;2023-04-15T03:20:50;9.00;68.60
42037;DHT22;30340;52.004;5.908;2023-04-15T03:23:16;9.00;68.60
42037;DHT22;30340;52.004;5.908;2023-04-15T03:25:41;9.00;68.60
42037;DHT22;30340;52.004;5.908;2023-04-15T03:28:07;9.00;68.60
42037;DHT22;30340;52.004;5.908;2023-04-15T03:30:32;9.00;68.60
42037;DHT22;30340;52.004;5.908;2023-04-15T03:32:58;9.00;68.60
42037;DHT22;30340;52.004;5.908;2023-04-15T03:35:24;9.00;68.60
42037;DHT22;30340;52.004;5.908;2023-04-15T03:37:49;9.00;68.70
42037;DHT22;30340;52.004;5.908;2023-04-15T03:40:15;8.90;68.70
42037;DHT22;30340;52.004;5.908;2023-04-15T03:42:41;8.90;69.50
42037;DHT22;30340;52.004;5.908;2023-04-15T03:45:07;8.80;69.70
42037;DHT22;30340;52.004;5.908;2023-04-15T03:47:32;8.80;69.60
42037;DHT22;30340;52.004;5.908;2023-04-15T03:49:58;8.80;69.70
42037;DHT22;30340;52.004;5.908;2023-04-15T03:52:23;8.80;69.70
42037;DHT22;30340;52.004;5.908;2023-04-15T03:54:49;8.70;69.70
42037;DHT22;30340;52.004;5.908;2023-04-15T03:57:14;8.70;70.40
42037;DHT22;30340;52.004;5.908;2023-04-15T03:59:40;8.70;70.60
42037;DHT22;30340;52.004;5.908;2023-04-15T04:02:06;8.60;70.60
42037;DHT22;30340;52.004;5.908;2023-04-15T04:04:31;8.60;70.70
42037;DHT22;30340;52.004;5.908;2023-04-15T04:06:57;8.60;70.70
42037;DHT22;30340;52.004;5.908;2023-04-15T04:09:22;8.60;70.80
42037;DHT22;30340;52.004;5.908;2023-04-15T04:11:48;8.60;70.70
42037;DHT22;30340;52.004;5.908;2023-04-15T04:14:13;8.60;70.80
42037;DHT22;30340;52.004;5.908;2023-04-15T04:16:39;8.60;70.80
42037;DHT22;30340;52.004;5.908;2023-04-15T04:19:04;8.60;70.90
42037;DHT22;30340;52.004;5.908;2023-04-15T04:21:30;8.50;70.90
42037;DHT22;30340;52.004;5.908;2023-04-15T04:23:58;8.50;71.10
42037;DHT22;30340;52.004;5.908;2023-04-15T04:26:24;8.50;71.20
42037;DHT22;30340;52.004;5.908;2023-04-15T04:28:49;8.40;71.40
42037;DHT22;30340;52.004;5.908;2023-04-15T04:31:15;8.40;71.70
42037;DHT22;30340;52.004;5.908;2023-04-15T04:33:41;8.40;71.80
42037;DHT22;30340;52.004;5.908;2023-04-15T04:36:06;8.30;72.20
42037;DHT22;30340;52.004;5.908;2023-04-15T04:38:32;8.30;72.40
42037;DHT22;30340;52.004;5.908;2023-04-15T04:40:57;8.30;72.50
42037;DHT22;30340;52.004;5.908;2023-04-15T04:43:23;8.20;72.50
42037;DHT22;30340;52.004;5.908;2023-04-15T04:45:49;8.30;72.60
42037;DHT22;30340;52.004;5.908;2023-04-15T04:48:14;8.20;72.60
42037;DHT22;30340;52.004;5.908;2023-04-15T04:50:41;8.20;73.40
42037;DHT22;30340;52.004;5.908;2023-04-15T04:53:07;8.10;73.40
42037;DHT22;30340;52.004;5.908;2023-04-15T04:55:32;8.10;73.70
42037;DHT22;30340;52.004;5.908;2023-04-15T04:58:01;8.10;73.90
42037;DHT22;30340;52.004;5.908;2023-04-15T05:00:27;8.00;74.20
42037;DHT22;30340;52.004;5.908;2023-04-15T05:02:52;8.10;74.20
42037;DHT22;30340;52.004;5.908;2023-04-15T05:05:18;8.10;74.40
42037;DHT22;30340;52.004;5.908;2023-04-15T05:07:43;8.10;74.50
42037;DHT22;30340;52.004;5.908;2023-04-15T05:10:09;8.10;74.40
42037;DHT22;30340;52.004;5.908;2023-04-15T05:12:35;8.10;74.50
42037;DHT22;30340;52.004;5.908;2023-04-15T05:15:02;8.00;75.40
42037;DHT22;30340;52.004;5.908;2023-04-15T05:17:27;8.10;75.30
42037;DHT22;30340;52.004;5.908;2023-04-15T05:19:55;8.10;75.10
42037;DHT22;30340;52.004;5.908;2023-04-15T05:22:21;8.20;75.10
42037;DHT22;30340;52.004;5.908;2023-04-15T05:24:46;8.20;75.00
42037;DHT22;30340;52.004;5.908;2023-04-15T05:27:12;8.30;74.80
42037;DHT22;30340;52.004;5.908;2023-04-15T05:29:37;8.40;74.60
42037;DHT22;30340;52.004;5.908;2023-04-15T05:32:03;8.70;74.50
42037;DHT22;30340;52.004;5.908;2023-04-15T05:34:28;9.30;73.80
42037;DHT22;30340;52.004;5.908;2023-04-15T05:36:54;9.70;72.60
42037;DHT22;30340;52.004;5.908;2023-04-15T05:39:20;10.20;71.20
42037;DHT22;30340;52.004;5.908;2023-04-15T05:41:46;10.80;69.70
42037;DHT22;30340;52.004;5.908;2023-04-15T05:44:12;11.50;67.90
42037;DHT22;30340;52.004;5.908;2023-04-15T05:46:37;11.80;66.30
42037;DHT22;30340;52.004;5.908;2023-04-15T05:49:03;11.80;65.80
42037;DHT22;30340;52.004;5.908;2023-04-15T05:51:28;11.80;65.80
42037;DHT22;30340;52.004;5.908;2023-04-15T05:53:54;11.60;66.00
42037;DHT22;30340;52.004;5.908;2023-04-15T05:56:20;11.80;66.00
42037;DHT22;30340;52.004;5.908;2023-04-15T05:58:45;11.90;65.70
42037;DHT22;30340;52.004;5.908;2023-04-15T06:01:11;11.90;65.60
42037;DHT22;30340;52.004;5.908;2023-04-15T06:03:37;12.10;65.70
42037;DHT22;30340;52.004;5.908;2023-04-15T06:06:03;12.70;64.90
42037;DHT22;30340;52.004;5.908;2023-04-15T06:08:28;13.50;63.40
42037;DHT22;30340;52.004;5.908;2023-04-15T06:10:54;14.10;61.50
42037;DHT22;30340;52.004;5.908;2023-04-15T06:13:20;14.50;60.40
42037;DHT22;30340;52.004;5.908;2023-04-15T06:15:45;14.50;59.60
42037;DHT22;30340;52.004;5.908;2023-04-15T06:18:11;14.30;59.70
42037;DHT22;30340;52.004;5.908;2023-04-15T06:20:37;14.30;59.60
42037;DHT22;30340;52.004;5.908;2023-04-15T06:23:02;14.20;59.70
42037;DHT22;30340;52.004;5.908;2023-04-15T06:25:28;13.90;60.00
42037;DHT22;30340;52.004;5.908;2023-04-15T06:27:53;13.50;60.90
42037;DHT22;30340;52.004;5.908;2023-04-15T06:30:19;13.10;61.50
42037;DHT22;30340;52.004;5.908;2023-04-15T06:32:46;12.90;62.60
42037;DHT22;30340;52.004;5.908;2023-04-15T06:35:11;12.80;62.80
42037;DHT22;30340;52.004;5.908;2023-04-15T06:37:37;12.80;62.90
42037;DHT22;30340;52.004;5.908;2023-04-15T06:40:03;12.60;62.90
42037;DHT22;30340;52.004;5.908;2023-04-15T06:42:29;12.40;63.30
42037;DHT22;30340;52.004;5.908;2023-04-15T06:44:55;12.00;63.90
42037;DHT22;30340;52.004;5.908;2023-04-15T06:47:21;11.70;64.80
42037;DHT22;30340;52.004;5.908;2023-04-15T06:49:46;11.40;65.80
42037;DHT22;30340;52.004;5.908;2023-04-15T06:52:12;11.30;66.30
42037;DHT22;30340;52.004;5.908;2023-04-15T06:54:37;11.00;67.10
42037;DHT22;30340;52.004;5.908;2023-04-15T06:57:04;10.90;67.70
42037;DHT22;30340;52.004;5.908;2023-04-15T06:59:31;10.70;68.10
42037;DHT22;30340;52.004;5.908;2023-04-15T07:01:57;10.70;68.20
42037;DHT22;30340;52.004;5.908;2023-04-15T07:04:22;10.70;68.40
42037;DHT22;30340;52.004;5.908;2023-04-15T07:06:48;10.60;68.70
42037;DHT22;30340;52.004;5.908;2023-04-15T07:09:14;10.50;69.00
42037;DHT22;30340;52.004;5.908;2023-04-15T07:11:39;10.50;69.10
42037;DHT22;30340;52.004;5.908;2023-04-15T07:14:05;10.40;69.30
42037;DHT22;30340;52.004;5.908;2023-04-15T07:16:31;10.40;69.50
42037;DHT22;30340;52.004;5.908;2023-04-15T07:18:56;10.40;69.70
42037;DHT22;30340;52.004;5.908;2023-04-15T07:21:23;10.40;69.80
42037;DHT22;30340;52.004;5.908;2023-04-15T07:23:48;10.30;69.80
42037;DHT22;30340;52.004;5.908;2023-04-15T07:26:14;10.30;70.10
42037;DHT22;30340;52.004;5.908;2023-04-15T07:28:39;10.30;70.30
42037;DHT22;30340;52.004;5.908;2023-04-15T07:31:05;10.30;70.60
42037;DHT22;30340;52.004;5.908;2023-04-15T07:33:31;10.30;70.60
42037;DHT22;30340;52.004;5.908;2023-04-15T07:35:57;10.40;70.60
42037;DHT22;30340;52.004;5.908;2023-04-15T07:38:22;10.40;70.60
42037;DHT22;30340;52.004;5.908;2023-04-15T07:40:48;10.50;70.70
42037;DHT22;30340;52.004;5.908;2023-04-15T07:43:14;10.50;70.80
42037;DHT22;30340;52.004;5.908;2023-04-15T07:45:39;10.60;70.70
42037;DHT22;30340;52.004;5.908;2023-04-15T07:48:05;10.60;70.60
42037;DHT22;30340;52.004;5.908;2023-04-15T07:50:31;10.70;70.40
42037;DHT22;30340;52.004;5.908;2023-04-15T07:52:56;10.90;70.00
42037;DHT22;30340;52.004;5.908;2023-04-15T07:55:22;11.00;69.80
42037;DHT22;30340;52.004;5.908;2023-04-15T07:57:48;11.20;70.10
42037;DHT22;30340;52.004;5.908;2023-04-15T08:00:15;11.50;68.90
42037;DHT22;30340;52.004;5.908;2023-04-15T08:02:41;11.70;68.40
42037;DHT22;30340;52.004;5.908;2023-04-15T08:05:08;11.90;67.80
42037;DHT22;30340;52.004;5.908;2023-04-15T08:07:38;12.20;66.90
42037;DHT22;30340;52.004;5.908;2023-04-15T08:10:04;12.40;66.00
42037;DHT22;30340;52.004;5.908;2023-04-15T08:12:30;12.40;65.30
42037;DHT22;30340;52.004;5.908;2023-04-15T08:14:56;12.50;65.00
42037;DHT22;30340;52.004;5.908;2023-04-15T08:17:22;12.40;64.80
42037;DHT22;30340;52.004;5.908;2023-04-15T08:19:47;12.30;65.10
42037;DHT22;30340;52.004;5.908;2023-04-15T08:22:13;12.20;65.40
42037;DHT22;30340;52.004;5.908;2023-04-15T08:24:39;12.20;65.50
42037;DHT22;30340;52.004;5.908;2023-04-15T08:27:05;12.20;65.40
42037;DHT22;30340;52.004;5.908;2023-04-15T08:29:34;12.20;65.30
42037;DHT22;30340;52.004;5.908;2023-04-15T08:32:00;12.30;65.10
42037;DHT22;30340;52.004;5.908;2023-04-15T08:34:28;12.40;64.90
42037;DHT22;30340;52.004;5.908;2023-04-15T08:36:59;12.50;64.60
42037;DHT22;30340;52.004;5.908;2023-04-15T08:39:25;12.70;64.30
42037;DHT22;30340;52.004;5.908;2023-04-15T08:44:22;12.60;63.70
42037;DHT22;30340;52.004;5.908;2023-04-15T08:46:48;12.50;64.00
42037;DHT22;30340;52.004;5.908;2023-04-15T08:49:14;12.40;64.10
42037;DHT22;30340;52.004;5.908;2023-04-15T08:51:42;12.40;64.20
42037;DHT22;30340;52.004;5.908;2023-04-15T08:54:08;12.30;64.20
42037;DHT22;30340;52.004;5.908;2023-04-15T08:56:38;12.30;64.40
42037;DHT22;30340;52.004;5.908;2023-04-15T08:59:03;12.40;64.50
42037;DHT22;30340;52.004;5.908;2023-04-15T09:01:30;12.50;64.30
42037;DHT22;30340;52.004;5.908;2023-04-15T09:03:56;12.40;64.10
42037;DHT22;30340;52.004;5.908;2023-04-15T09:06:23;12.30;64.00
42037;DHT22;30340;52.004;5.908;2023-04-15T09:08:50;12.30;64.20
42037;DHT22;30340;52.004;5.908;2023-04-15T09:11:16;12.30;64.90
42037;DHT22;30340;52.004;5.908;2023-04-15T09:13:42;12.40;64.20
42037;DHT22;30340;52.004;5.908;2023-04-15T09:16:08;12.50;64.20
42037;DHT22;30340;52.004;5.908;2023-04-15T09:18:37;12.50;64.20
42037;DHT22;30340;52.004;5.908;2023-04-15T09:21:07;12.50;64.40
42037;DHT22;30340;52.004;5.908;2023-04-15T09:23:36;12.60;64.30
42037;DHT22;30340;52.004;5.908;2023-04-15T09:26:03;12.70;64.30
42037;DHT22;30340;52.004;5.908;2023-04-15T09:28:29;12.80;64.20
42037;DHT22;30340;52.004;5.908;2023-04-15T09:30:56;12.80;64.20
42037;DHT22;30340;52.004;5.908;2023-04-15T09:33:30;12.60;64.20
42037;DHT22;30340;52.004;5.908;2023-04-15T09:38:26;12.70;64.30
42037;DHT22;30340;52.004;5.908;2023-04-15T09:40:52;12.80;64.40
42037;DHT22;30340;52.004;5.908;2023-04-15T09:43:18;12.90;64.30
42037;DHT22;30340;52.004;5.908;2023-04-15T09:45:51;12.90;64.10
42037;DHT22;30340;52.004;5.908;2023-04-15T09:48:24;13.00;63.70
42037;DHT22;30340;52.004;5.908;2023-04-15T09:50:57;13.00;63.70
42037;DHT22;30340;52.004;5.908;2023-04-15T09:53:24;13.10;63.90
42037;DHT22;30340;52.004;5.908;2023-04-15T09:55:54;13.20;63.60
42037;DHT22;30340;52.004;5.908;2023-04-15T09:58:22;13.20;62.90
42037;DHT22;30340;52.004;5.908;2023-04-15T10:00:49;13.30;62.40
42037;DHT22;30340;52.004;5.908;2023-04-15T10:03:44;13.20;62.50
42037;DHT22;30340;52.004;5.908;2023-04-15T10:06:10;13.30;62.50
42037;DHT22;30340;52.004;5.908;2023-04-15T10:08:36;13.40;62.60
42037;DHT22;30340;52.004;5.908;2023-04-15T10:11:03;13.40;62.70
42037;DHT22;30340;52.004;5.908;2023-04-15T10:13:30;13.60;62.60
42037;DHT22;30340;52.004;5.908;2023-04-15T10:16:06;13.60;61.90
42037;DHT22;30340;52.004;5.908;2023-04-15T10:18:37;13.60;61.70
42037;DHT22;30340;52.004;5.908;2023-04-15T10:21:05;13.60;61.60
42037;DHT22;30340;52.004;5.908;2023-04-15T10:23:31;13.70;61.30
42037;DHT22;30340;52.004;5.908;2023-04-15T10:25:58;13.80;61.30
42037;DHT22;30340;52.004;5.908;2023-04-15T10:28:24;13.90;60.80
42037;DHT22;30340;52.004;5.908;2023-04-15T10:30:51;13.90;60.20
42037;DHT22;30340;52.004;5.908;2023-04-15T10:33:20;13.80;60.30
42037;DHT22;30340;52.004;5.908;2023-04-15T10:35:47;13.80;60.60
42037;DHT22;30340;52.004;5.908;2023-04-15T10:38:33;13.80;60.80
42037;DHT22;30340;52.004;5.908;2023-04-15T10:41:22;13.80;60.90
42037;DHT22;30340;52.004;5.908;2023-04-15T10:43:59;13.80;61.10
42037;DHT22;30340;52.004;5.908;2023-04-15T10:46:41;14.00;61.20
42037;DHT22;30340;52.004;5.908;2023-04-15T10:49:14;14.00;61.10
42037;DHT22;30340;52.004;5.908;2023-04-15T10:51:44;14.20;60.70
42037;DHT22;30340;52.004;5.908;2023-04-15T10:54:32;14.30;60.30
42037;DHT22;30340;52.004;5.908;2023-04-15T11:00:08;14.20;59.30
42037;DHT22;30340;52.004;5.908;2023-04-15T11:02:47;14.20;59.30
42037;DHT22;30340;52.004;5.908;2023-04-15T11:05:14;14.20;59.30
42037;DHT22;30340;52.004;5.908;2023-04-15T11:15:29;14.40;59.80
42037;DHT22;30340;52.004;5.908;2023-04-15T11:17:58;14.50;59.30
42037;DHT22;30340;52.004;5.908;2023-04-15T11:20:24;14.50;59.00
42037;DHT22;30340;52.004;5.908;2023-04-15T11:22:52;14.50;58.80
42037;DHT22;30340;52.004;5.908;2023-04-15T11:25:25;14.60;58.60
42037;DHT22;30340;52.004;5.908;2023-04-15T11:27:52;14.70;58.20
42037;DHT22;30340;52.004;5.908;2023-04-15T11:30:21;14.80;58.00
42037;DHT22;30340;52.004;5.908;2023-04-15T11:32:51;14.90;57.50
42037;DHT22;30340;52.004;5.908;2023-04-15T11:35:17;14.90;56.90
42037;DHT22;30340;52.004;5.908;2023-04-15T11:37:44;15.00;57.00
42037;DHT22;30340;52.004;5.908;2023-04-15T11:40:10;15.10;56.60
42037;DHT22;30340;52.004;5.908;2023-04-15T11:42:36;15.10;56.00
42037;DHT22;30340;52.004;5.908;2023-04-15T11:45:09;15.00;55.20
42037;DHT22;30340;52.004;5.908;2023-04-15T11:47:39;15.10;55.70
42037;DHT22;30340;52.004;5.908;2023-04-15T11:50:15;15.20;55.30
42037;DHT22;30340;52.004;5.908;2023-04-15T11:52:51;15.30;55.40
42037;DHT22;30340;52.004;5.908;2023-04-15T11:55:16;15.10;55.00
42037;DHT22;30340;52.004;5.908;2023-04-15T11:57:42;15.10;54.90
42037;DHT22;30340;52.004;5.908;2023-04-15T12:00:09;15.10;54.90
42037;DHT22;30340;52.004;5.908;2023-04-15T12:02:38;15.20;54.90
42037;DHT22;30340;52.004;5.908;2023-04-15T12:05:07;15.20;54.50
42037;DHT22;30340;52.004;5.908;2023-04-15T12:07:32;15.30;54.40
42037;DHT22;30340;52.004;5.908;2023-04-15T12:09:59;15.30;54.60
42037;DHT22;30340;52.004;5.908;2023-04-15T12:12:27;15.30;54.60
42037;DHT22;30340;52.004;5.908;2023-04-15T12:14:55;15.20;54.90
42037;DHT22;30340;52.004;5.908;2023-04-15T12:17:22;15.30;54.90
42037;DHT22;30340;52.004;5.908;2023-04-15T12:19:54;15.30;54.90
42037;DHT22;30340;52.004;5.908;2023-04-15T12:22:20;15.30;54.70
42037;DHT22;30340;52.004;5.908;2023-04-15T12:24:46;15.20;55.30
42037;DHT22;30340;52.004;5.908;2023-04-15T12:27:15;15.20;55.20
42037;DHT22;30340;52.004;5.908;2023-04-15T12:29:42;15.20;55.10
42037;DHT22;30340;52.004;5.908;2023-04-15T12:32:12;15.20;55.20
42037;DHT22;30340;52.004;5.908;2023-04-15T12:34:40;15.20;55.10
42037;DHT22;30340;52.004;5.908;2023-04-15T12:37:07;15.30;55.20
42037;DHT22;30340;52.004;5.908;2023-04-15T12:39:38;15.50;55.10
42037;DHT22;30340;52.004;5.908;2023-04-15T12:42:05;15.60;54.60
42037;DHT22;30340;52.004;5.908;2023-04-15T12:44:31;15.60;54.70
42037;DHT22;30340;52.004;5.908;2023-04-15T12:46:57;15.60;54.70
42037;DHT22;30340;52.004;5.908;2023-04-15T12:49:24;15.60;54.60
42037;DHT22;30340;52.004;5.908;2023-04-15T12:51:53;15.60;55.20
42037;DHT22;30340;52.004;5.908;2023-04-15T12:54:19;15.60;55.30
42037;DHT22;30340;52.004;5.908;2023-04-15T12:56:47;15.50;55.40
42037;DHT22;30340;52.004;5.908;2023-04-15T12:59:13;15.40;54.90
42037;DHT22;30340;52.004;5.908;2023-04-15T13:01:39;15.30;55.10
42037;DHT22;30340;52.004;5.908;2023-04-15T13:04:05;15.30;55.40
42037;DHT22;30340;52.004;5.908;2023-04-15T13:06:31;15.20;55.60
42037;DHT22;30340;52.004;5.908;2023-04-15T13:09:01;15.10;55.80
42037;DHT22;30340;52.004;5.908;2023-04-15T13:11:28;15.10;55.80
42037;DHT22;30340;52.004;5.908;2023-04-15T13:14:00;15.10;55.60
42037;DHT22;30340;52.004;5.908;2023-04-15T13:16:26;15.00;55.60
42037;DHT22;30340;52.004;5.908;2023-04-15T13:18:52;15.10;55.80
42037;DHT22;30340;52.004;5.908;2023-04-15T13:21:18;15.10;56.20
42037;DHT22;30340;52.004;5.908;2023-04-15T13:23:44;15.10;56.60
42037;DHT22;30340;52.004;5.908;2023-04-15T13:26:09;15.00;55.90
42037;DHT22;30340;52.004;5.908;2023-04-15T13:28:35;15.00;55.80
42037;DHT22;30340;52.004;5.908;2023-04-15T13:31:01;15.10;55.70
42037;DHT22;30340;52.004;5.908;2023-04-15T13:33:27;15.20;55.80
42037;DHT22;30340;52.004;5.908;2023-04-15T13:35:53;15.20;55.60
42037;DHT22;30340;52.004;5.908;2023-04-15T13:38:18;15.20;55.40
42037;DHT22;30340;52.004;5.908;2023-04-15T13:40:44;15.10;55.20
42037;DHT22;30340;52.004;5.908;2023-04-15T13:43:10;15.10;55.60
42037;DHT22;30340;52.004;5.908;2023-04-15T13:45:36;15.20;55.70
42037;DHT22;30340;52.004;5.908;2023-04-15T13:48:02;15.10;55.80
42037;DHT22;30340;52.004;5.908;2023-04-15T13:50:27;15.00;56.10
42037;DHT22;30340;52.004;5.908;2023-04-15T13:52:53;14.90;56.40
42037;DHT22;30340;52.004;5.908;2023-04-15T13:55:19;14.80;56.80
42037;DHT22;30340;52.004;5.908;2023-04-15T13:57:44;14.70;56.90
42037;DHT22;30340;52.004;5.908;2023-04-15T14:00:11;14.50;57.20
42037;DHT22;30340;52.004;5.908;2023-04-15T14:02:36;14.40;57.70
42037;DHT22;30340;52.004;5.908;2023-04-15T14:05:02;14.30;57.90
42037;DHT22;30340;52.004;5.908;2023-04-15T14:07:29;14.30;58.30
42037;DHT22;30340;52.004;5.908;2023-04-15T14:09:55;14.10;58.60
42037;DHT22;30340;52.004;5.908;2023-04-15T14:12:21;14.10;58.80
42037;DHT22;30340;52.004;5.908;2023-04-15T14:14:46;14.00;58.80
42037;DHT22;30340;52.004;5.908;2023-04-15T14:17:12;14.00;58.70
42037;DHT22;30340;52.004;5.908;2023-04-15T14:19:37;13.90;58.90
42037;DHT22;30340;52.004;5.908;2023-04-15T14:22:03;13.80;58.80
42037;DHT22;30340;52.004;5.908;2023-04-15T14:24:29;13.80;59.20
42037;DHT22;30340;52.004;5.908;2023-04-15T14:26:54;13.70;59.60
42037;DHT22;30340;52.004;5.908;2023-04-15T14:29:21;13.60;60.10
42037;DHT22;30340;52.004;5.908;2023-04-15T14:31:47;13.40;60.50
42037;DHT22;30340;52.004;5.908;2023-04-15T14:34:14;13.40;60.80
42037;DHT22;30340;52.004;5.908;2023-04-15T14:36:40;13.40;61.20
42037;DHT22;30340;52.004;5.908;2023-04-15T14:39:06;13.30;62.20
42037;DHT22;30340;52.004;5.908;2023-04-15T14:41:32;13.20;61.80
42037;DHT22;30340;52.004;5.908;2023-04-15T14:43:58;13.20;62.00
42037;DHT22;30340;52.004;5.908;2023-04-15T14:46:24;13.20;62.20
42037;DHT22;30340;52.004;5.908;2023-04-15T14:48:50;13.20;62.20
42037;DHT22;30340;52.004;5.908;2023-04-15T14:51:16;13.20;62.70
42037;DHT22;30340;52.004;5.908;2023-04-15T14:53:41;13.20;62.10
42037;DHT22;30340;52.004;5.908;2023-04-15T14:56:07;13.20;62.10
42037;DHT22;30340;52.004;5.908;2023-04-15T14:58:32;13.10;62.30
42037;DHT22;30340;52.004;5.908;2023-04-15T15:00:58;13.00;62.60
42037;DHT22;30340;52.004;5.908;2023-04-15T15:03:24;13.00;63.00
42037;DHT22;30340;52.004;5.908;2023-04-15T15:05:50;12.90;63.30
42037;DHT22;30340;52.004;5.908;2023-04-15T15:08:15;12.80;63.50
42037;DHT22;30340;52.004;5.908;2023-04-15T15:10:41;12.80;63.80
42037;DHT22;30340;52.004;5.908;2023-04-15T15:13:08;12.80;63.80
42037;DHT22;30340;52.004;5.908;2023-04-15T15:15:36;12.70;63.90
42037;DHT22;30340;52.004;5.908;2023-04-15T15:18:02;12.60;64.10
42037;DHT22;30340;52.004;5.908;2023-04-15T15:20:28;12.50;64.30
42037;DHT22;30340;52.004;5.908;2023-04-15T15:22:54;12.50;64.60
42037;DHT22;30340;52.004;5.908;2023-04-15T15:25:19;12.40;64.90
42037;DHT22;30340;52.004;5.908;2023-04-15T15:27:45;12.40;64.90
42037;DHT22;30340;52.004;5.908;2023-04-15T15:30:11;12.40;65.20
42037;DHT22;30340;52.004;5.908;2023-04-15T15:32:39;12.30;65.30
42037;DHT22;30340;52.004;5.908;2023-04-15T15:35:05;12.40;65.40
42037;DHT22;30340;52.004;5.908;2023-04-15T15:37:31;12.40;65.30
42037;DHT22;30340;52.004;5.908;2023-04-15T15:39:57;12.50;65.40
42037;DHT22;30340;52.004;5.908;2023-04-15T15:42:22;12.50;65.50
42037;DHT22;30340;52.004;5.908;2023-04-15T15:44:49;12.40;66.00
42037;DHT22;30340;52.004;5.908;2023-04-15T15:47:15;12.40;66.40